Time;durP1;ratioP1;P1;durP2;ratioP2;P2;SDS_P1;SDS_P2;PMS_P1;PMS_P2;Temp;Humidity;BMP_temperature;BMP_pressure;BME280_temperature;BME280_humidity;BME280_pressure;Samples;Min_cycle;Max_cycle;Signal;HPM_P1;HPM_P2
2023/06/02 00:01:06;;;;;;;8.53;4.43;;;17.60;14.50;;;;;;5029680;28;20522;-63
2023/06/02 00:03:36;;;;;;;8.33;4.67;;;17.50;14.50;;;;;;5027163;28;20467;-64
2023/06/02 00:06:05;;;;;;;11.23;4.77;;;17.50;14.60;;;;;;5025060;28;21116;-64
2023/06/02 00:08:36;;;;;;;7.60;4.63;;;17.40;14.40;;;;;;5026492;28;20483;-64
2023/06/02 00:11:03;;;;;;;9.63;4.70;;;17.40;14.80;;;;;;5028908;28;20959;-63
2023/06/02 00:13:30;;;;;;;13.03;5.40;;;17.30;14.90;;;;;;5029785;28;20495;-65
2023/06/02 00:15:57;;;;;;;7.90;5.07;;;17.30;14.90;;;;;;5028625;28;20462;-65
2023/06/02 00:18:24;;;;;;;9.13;4.80;;;17.30;14.90;;;;;;5030158;28;20482;-63
2023/06/02 00:20:51;;;;;;;13.47;5.40;;;17.30;14.90;;;;;;5024922;28;20498;-63
2023/06/02 00:23:18;;;;;;;9.73;4.87;;;17.30;14.80;;;;;;5029645;28;20474;-63
2023/06/02 00:25:47;;;;;;;11.57;5.60;;;17.30;14.80;;;;;;5028225;28;20475;-63
2023/06/02 00:28:13;;;;;;;8.30;4.70;;;17.30;14.60;;;;;;5029377;28;21013;-65
2023/06/02 00:30:40;;;;;;;7.40;4.63;;;17.30;14.70;;;;;;5029019;28;21034;-63
2023/06/02 00:33:07;;;;;;;8.63;4.70;;;17.30;14.70;;;;;;5027492;28;20474;-64
2023/06/02 00:35:34;;;;;;;8.17;5.70;;;17.30;14.60;;;;;;5022417;28;20462;-63
2023/06/02 00:38:04;;;;;;;8.23;5.40;;;17.30;14.80;;;;;;5037112;23;20499;31
2023/06/02 00:40:32;;;;;;;7.50;5.00;;;17.30;15.00;;;;;;5021227;28;20845;-64
2023/06/02 00:43:00;;;;;;;9.73;5.80;;;17.20;15.00;;;;;;5023088;28;20459;-64
2023/06/02 00:45:27;;;;;;;9.07;5.27;;;17.20;15.00;;;;;;5029756;28;20467;-64
2023/06/02 00:47:53;;;;;;;7.80;4.90;;;17.20;15.00;;;;;;5028814;28;20470;-63
2023/06/02 00:50:20;;;;;;;8.67;4.60;;;17.20;15.00;;;;;;5027006;28;21513;-63
2023/06/02 00:52:52;;;;;;;8.10;4.60;;;17.10;14.90;;;;;;5072680;22;20459;-64
2023/06/02 00:55:19;;;;;;;8.33;4.73;;;17.10;14.90;;;;;;5024153;28;20482;-63
2023/06/02 00:57:46;;;;;;;7.30;4.67;;;17.10;14.80;;;;;;5025662;28;20485;-63
2023/06/02 01:00:15;;;;;;;7.87;4.77;;;17.10;14.80;;;;;;5027154;28;20482;-63
2023/06/02 01:02:41;;;;;;;9.20;4.37;;;17.10;14.60;;;;;;5024744;28;20487;-64
2023/06/02 01:05:10;;;;;;;9.00;4.53;;;17.10;14.60;;;;;;5027752;28;20467;-64
2023/06/02 01:07:39;;;;;;;9.00;5.03;;;17.10;14.60;;;;;;5029777;28;20533;-64
2023/06/02 01:10:08;;;;;;;8.60;4.50;;;17.00;14.80;;;;;;5028268;28;20514;-64
2023/06/02 01:12:35;;;;;;;8.93;5.03;;;17.00;14.90;;;;;;5024825;28;20481;-65
2023/06/02 01:15:02;;;;;;;9.30;5.47;;;17.00;15.00;;;;;;5027922;28;20462;-64
2023/06/02 01:17:35;;;;;;;8.27;4.93;;;17.00;15.20;;;;;;5028723;28;20455;-64
2023/06/02 01:20:09;;;;;;;9.80;5.40;;;16.90;15.30;;;;;;5027914;28;20482;-64
2023/06/02 01:22:43;;;;;;;8.20;4.80;;;16.90;15.50;;;;;;5025691;28;20553;-64
2023/06/02 01:25:22;;;;;;;9.43;5.33;;;16.80;15.60;;;;;;5027959;28;20497;-64
2023/06/02 01:27:50;;;;;;;8.50;5.30;;;16.80;15.90;;;;;;5025753;28;20463;-65
2023/06/02 01:30:17;;;;;;;10.00;4.60;;;16.70;15.80;;;;;;5025706;28;20505;-64
2023/06/02 01:32:51;;;;;;;9.97;5.20;;;16.70;16.10;;;;;;5021587;28;20467;-64
2023/06/02 01:35:21;;;;;;;10.83;6.20;;;16.70;16.00;;;;;;5021561;28;20459;-64
2023/06/02 01:37:54;;;;;;;8.23;4.60;;;16.60;15.80;;;;;;5029303;28;20503;-65
2023/06/02 01:40:23;;;;;;;9.50;4.73;;;16.60;15.60;;;;;;5027772;28;20841;-64
2023/06/02 01:42:51;;;;;;;10.43;4.80;;;16.50;15.40;;;;;;5027689;28;20486;-64
2023/06/02 01:45:19;;;;;;;13.30;4.33;;;16.50;15.20;;;;;;5026418;28;20466;-64
2023/06/02 01:47:46;;;;;;;10.37;4.53;;;16.50;14.70;;;;;;5029505;28;20463;-64
2023/06/02 01:50:12;;;;;;;12.53;5.63;;;16.50;14.50;;;;;;5023440;28;20525;-64
2023/06/02 01:52:39;;;;;;;8.33;4.50;;;16.40;14.30;;;;;;5025326;28;20472;-64
2023/06/02 01:55:07;;;;;;;7.47;4.03;;;16.30;14.30;;;;;;5023774;28;20494;-64
2023/06/02 01:57:35;;;;;;;8.83;4.57;;;16.30;13.50;;;;;;5026689;28;20455;-64
2023/06/02 02:00:04;;;;;;;9.40;4.50;;;16.30;13.90;;;;;;5026863;28;20479;-64
2023/06/02 02:02:30;;;;;;;11.23;4.47;;;16.30;13.90;;;;;;5026472;28;20467;-64
2023/06/02 02:04:57;;;;;;;10.03;4.93;;;16.20;13.40;;;;;;5024828;28;21019;-64
2023/06/02 02:07:24;;;;;;;9.07;4.57;;;16.20;13.40;;;;;;5025905;28;20545;-65
2023/06/02 02:09:51;;;;;;;9.47;5.07;;;16.20;13.60;;;;;;5025661;28;20494;-64
2023/06/02 02:12:17;;;;;;;11.40;4.47;;;16.20;13.90;;;;;;5024720;28;20466;-64
2023/06/02 02:14:50;;;;;;;7.63;4.57;;;16.10;14.30;;;;;;5025965;28;20482;-64
2023/06/02 02:17:17;;;;;;;10.60;5.07;;;16.10;14.60;;;;;;5025299;28;20460;-64
2023/06/02 02:19:44;;;;;;;7.80;4.73;;;16.10;15.00;;;;;;5027750;28;20482;-64
2023/06/02 02:22:11;;;;;;;10.87;5.50;;;16.00;15.50;;;;;;5026700;28;20475;-64
2023/06/02 02:24:38;;;;;;;9.17;4.90;;;16.00;16.10;;;;;;5025147;28;20578;-64
2023/06/02 02:27:07;;;;;;;11.80;5.47;;;16.00;16.40;;;;;;5026372;28;20471;-64
2023/06/02 02:29:34;;;;;;;9.70;5.57;;;15.90;16.60;;;;;;5024996;28;20487;-64
2023/06/02 02:32:02;;;;;;;9.20;5.07;;;15.90;17.00;;;;;;5021351;28;20474;-64
2023/06/02 02:34:29;;;;;;;9.17;5.13;;;15.80;17.00;;;;;;5024835;28;20471;-64
2023/06/02 02:37:01;;;;;;;9.70;4.97;;;15.90;17.20;;;;;;5027438;28;20463;-64
2023/06/02 02:39:28;;;;;;;9.37;5.10;;;15.80;17.30;;;;;;5025455;28;20467;-64
2023/06/02 02:41:54;;;;;;;13.13;5.67;;;15.70;17.40;;;;;;5026037;28;20458;-64
2023/06/02 02:44:21;;;;;;;9.23;5.33;;;15.70;17.30;;;;;;5023541;28;20466;-64
2023/06/02 02:46:48;;;;;;;11.60;5.30;;;15.70;17.60;;;;;;5031121;28;20462;-64
2023/06/02 02:49:16;;;;;;;8.83;5.13;;;15.70;17.60;;;;;;5030105;28;20487;-64
2023/06/02 02:51:43;;;;;;;9.47;5.20;;;15.70;17.70;;;;;;5031229;28;20469;-64
2023/06/02 02:54:10;;;;;;;8.87;5.47;;;15.60;17.60;;;;;;5031677;28;20475;-64
2023/06/02 02:56:40;;;;;;;8.87;4.90;;;15.70;17.80;;;;;;5032983;28;20466;-64
2023/06/02 02:59:06;;;;;;;10.03;5.87;;;15.60;17.90;;;;;;5029993;28;20522;-64
2023/06/02 03:01:33;;;;;;;8.63;5.47;;;15.50;18.10;;;;;;5027627;28;20483;-64
2023/06/02 03:04:00;;;;;;;15.67;5.73;;;15.50;18.20;;;;;;5030577;28;20463;-64
2023/06/02 03:06:31;;;;;;;9.43;5.37;;;15.50;18.30;;;;;;5030008;28;20493;-64
2023/06/02 03:08:58;;;;;;;10.00;5.43;;;15.40;18.20;;;;;;5029606;28;21107;-64
2023/06/02 03:11:26;;;;;;;12.50;5.73;;;15.40;18.30;;;;;;5030367;28;20490;-64
2023/06/02 03:13:53;;;;;;;9.43;5.20;;;15.30;18.40;;;;;;5027257;28;20545;-64
2023/06/02 03:16:20;;;;;;;8.90;5.37;;;15.30;18.10;;;;;;5028696;28;20494;-64
2023/06/02 03:18:47;;;;;;;10.13;5.90;;;15.30;17.80;;;;;;5029049;28;20587;-64
2023/06/02 03:21:13;;;;;;;10.23;5.90;;;15.30;17.80;;;;;;5030589;28;20471;-64
2023/06/02 03:23:42;;;;;;;9.97;5.37;;;15.30;17.70;;;;;;5031097;28;20494;-64
2023/06/02 03:26:11;;;;;;;10.40;4.67;;;15.20;17.30;;;;;;5027759;28;20466;-64
2023/06/02 03:28:39;;;;;;;9.93;5.60;;;15.20;17.00;;;;;;5026973;28;20857;-64
2023/06/02 03:31:06;;;;;;;14.10;6.50;;;15.20;17.10;;;;;;5028678;28;20482;-64
2023/06/02 03:33:33;;;;;;;10.27;5.60;;;15.20;17.40;;;;;;5025211;28;20482;-64
2023/06/02 03:35:59;;;;;;;10.47;6.20;;;15.20;18.00;;;;;;5028294;28;20848;-64
2023/06/02 03:38:26;;;;;;;9.90;5.80;;;15.10;18.40;;;;;;5028580;28;20479;-63
2023/06/02 03:40:54;;;;;;;13.00;6.00;;;15.10;19.40;;;;;;5026266;28;20451;-63
2023/06/02 03:43:21;;;;;;;13.37;5.47;;;15.10;19.50;;;;;;5030349;28;20487;-63
2023/06/02 03:45:48;;;;;;;10.27;5.87;;;15.00;19.70;;;;;;5029110;28;20506;-63
2023/06/02 03:48:15;;;;;;;11.77;6.20;;;15.00;19.50;;;;;;5029178;28;20850;-62
2023/06/02 03:50:41;;;;;;;11.40;6.20;;;15.00;19.70;;;;;;5028564;28;21034;-64
2023/06/02 03:53:08;;;;;;;11.27;6.93;;;15.10;19.80;;;;;;5027637;28;20562;-63
2023/06/02 03:55:35;;;;;;;10.73;6.43;;;15.10;19.90;;;;;;5027684;28;21146;-63
2023/06/02 03:58:03;;;;;;;10.93;6.10;;;15.10;20.00;;;;;;5029077;28;20482;-63
2023/06/02 04:00:30;;;;;;;9.63;6.30;;;15.00;20.30;;;;;;5027488;28;20455;-63
2023/06/02 04:02:57;;;;;;;10.90;5.50;;;15.00;20.50;;;;;;5029352;28;20969;-63
2023/06/02 04:05:24;;;;;;;12.30;6.13;;;15.00;20.40;;;;;;5026444;28;20554;-63
2023/06/02 04:07:52;;;;;;;11.53;5.80;;;15.00;20.40;;;;;;5027567;28;20471;-61
2023/06/02 04:10:19;;;;;;;9.50;6.13;;;15.00;20.70;;;;;;5032717;28;20479;-61
2023/06/02 04:12:46;;;;;;;9.77;5.50;;;15.00;20.70;;;;;;5028889;28;20462;-61
2023/06/02 04:15:14;;;;;;;10.83;6.23;;;15.00;20.30;;;;;;5027935;28;20459;-61
2023/06/02 04:17:41;;;;;;;8.00;5.70;;;15.10;20.40;;;;;;5028960;28;20471;-62
2023/06/02 04:20:08;;;;;;;9.77;5.77;;;15.10;19.90;;;;;;5027577;28;21018;-61
2023/06/02 04:22:35;;;;;;;10.20;6.03;;;15.20;19.70;;;;;;5026060;28;20967;-61
2023/06/02 04:25:02;;;;;;;9.50;6.00;;;15.30;19.40;;;;;;5024142;28;20467;-61
2023/06/02 04:27:29;;;;;;;10.53;6.30;;;15.50;19.20;;;;;;5030657;28;20459;-62
2023/06/02 04:29:56;;;;;;;9.60;6.00;;;16.60;18.00;;;;;;5024462;28;21007;-61
2023/06/02 04:32:24;;;;;;;10.30;5.90;;;18.10;14.80;;;;;;5026894;28;20493;-61
2023/06/02 04:34:51;;;;;;;9.43;5.17;;;19.50;11.50;;;;;;5026997;28;21064;-61
2023/06/02 04:37:18;;;;;;;9.10;5.60;;;20.60;8.50;;;;;;5027324;28;20529;-61
2023/06/02 04:39:47;;;;;;;8.73;5.10;;;21.70;5.90;;;;;;5027398;28;20866;-61
2023/06/02 04:42:14;;;;;;;10.87;5.10;;;22.60;3.10;;;;;;5027349;28;20892;-62
2023/06/02 04:44:44;;;;;;;8.87;4.80;;;23.40;1.80;;;;;;5024510;28;20545;-61
2023/06/02 04:47:11;;;;;;;9.40;5.83;;;23.60;1.00;;;;;;5028898;28;20940;-62
2023/06/02 04:49:39;;;;;;;8.87;5.33;;;22.80;1.40;;;;;;5028315;28;20487;-61
2023/06/02 04:52:07;;;;;;;11.40;5.80;;;22.00;2.70;;;;;;5026710;28;20983;-61
2023/06/02 04:54:33;;;;;;;9.07;6.30;;;22.30;2.90;;;;;;5023931;28;20471;-61
2023/06/02 04:57:00;;;;;;;8.33;5.60;;;23.70;1.00;;;;;;5027558;28;20471;-61
2023/06/02 04:59:28;;;;;;;9.03;5.17;;;25.20;1.00;;;;;;5023573;28;20515;-61
2023/06/02 05:01:55;;;;;;;9.03;5.17;;;26.50;1.00;;;;;;5028138;28;21026;-61
2023/06/02 05:04:23;;;;;;;9.30;5.70;;;27.50;1.00;;;;;;5024887;28;20458;-61
2023/06/02 05:06:51;;;;;;;9.90;5.43;;;28.40;1.00;;;;;;5026981;28;21220;-61
2023/06/02 05:09:18;;;;;;;8.10;5.50;;;29.30;1.00;;;;;;5026804;28;20517;-61
2023/06/02 05:11:45;;;;;;;9.80;5.37;;;30.00;1.00;;;;;;5026494;28;20515;-62
2023/06/02 05:14:12;;;;;;;10.00;5.17;;;30.70;1.00;;;;;;5026810;28;20470;-61
2023/06/02 05:16:44;;;;;;;9.23;6.20;;;31.40;1.00;;;;;;5026998;28;20943;-61
2023/06/02 05:19:11;;;;;;;9.60;6.10;;;32.10;1.00;;;;;;5024936;28;20535;-61
2023/06/02 05:21:37;;;;;;;8.63;5.87;;;32.80;1.00;;;;;;5026113;28;20455;-62
2023/06/02 05:24:06;;;;;;;9.00;6.00;;;33.40;1.00;;;;;;5025921;28;20471;-62
2023/06/02 05:26:33;;;;;;;7.00;4.97;;;33.90;1.00;;;;;;5020309;28;20850;-61
2023/06/02 05:29:00;;;;;;;9.43;6.10;;;34.60;1.00;;;;;;5027926;28;20502;-62
2023/06/02 05:31:26;;;;;;;10.83;6.07;;;35.30;1.00;;;;;;5024868;28;20898;-62
2023/06/02 05:33:53;;;;;;;8.67;5.87;;;35.80;1.00;;;;;;5026513;28;20474;-63
2023/06/02 05:36:20;;;;;;;7.97;6.40;;;36.30;1.00;;;;;;5024876;28;20550;-62
2023/06/02 05:38:47;;;;;;;9.77;5.90;;;36.90;1.00;;;;;;5027287;28;20474;-62
2023/06/02 05:41:15;;;;;;;9.33;5.67;;;37.50;1.00;;;;;;5027132;28;20462;-62
2023/06/02 05:43:41;;;;;;;7.90;5.30;;;38.00;1.00;;;;;;5026415;28;20474;-61
2023/06/02 05:46:08;;;;;;;12.73;6.60;;;38.40;1.00;;;;;;5025446;28;20474;-62
2023/06/02 05:48:35;;;;;;;10.37;6.60;;;38.90;1.00;;;;;;5025340;28;20510;-62
2023/06/02 05:51:02;;;;;;;8.47;5.80;;;39.50;1.00;;;;;;5026404;28;20478;-62
2023/06/02 05:53:28;;;;;;;10.17;6.30;;;39.90;1.00;;;;;;5022371;28;20477;-62
2023/06/02 05:55:55;;;;;;;8.87;5.50;;;40.40;1.00;;;;;;5028341;28;20471;-62
2023/06/02 05:58:23;;;;;;;10.00;5.23;;;40.80;1.00;;;;;;5029510;28;21004;-62
2023/06/02 06:00:50;;;;;;;7.57;5.87;;;41.30;1.00;;;;;;5025885;28;20471;-63
2023/06/02 06:03:17;;;;;;;8.00;5.70;;;41.70;1.00;;;;;;5027466;28;20468;-63
2023/06/02 06:05:43;;;;;;;7.07;4.90;;;42.00;1.00;;;;;;5021396;28;20845;-62
2023/06/02 06:08:10;;;;;;;8.30;5.30;;;42.40;1.00;;;;;;5031728;28;20489;-66
2023/06/02 06:10:37;;;;;;;6.90;5.50;;;42.90;1.00;;;;;;5024743;28;20475;-62
2023/06/02 06:13:04;;;;;;;7.13;5.57;;;43.30;1.00;;;;;;5026582;28;20466;-62
2023/06/02 06:15:32;;;;;;;10.27;5.60;;;43.70;1.00;;;;;;5023668;28;20986;-62
2023/06/02 06:17:58;;;;;;;11.90;6.20;;;43.90;1.00;;;;;;5031056;28;20474;-62
2023/06/02 06:20:25;;;;;;;8.37;5.70;;;44.20;1.00;;;;;;5028890;28;20466;-62
2023/06/02 06:22:52;;;;;;;7.70;5.00;;;44.40;1.00;;;;;;5031163;28;20455;-62
2023/06/02 06:25:19;;;;;;;9.63;6.23;;;44.80;1.00;;;;;;5028297;28;20465;-62
2023/06/02 06:27:45;;;;;;;6.97;4.90;;;45.10;1.00;;;;;;5034473;28;20982;-63
2023/06/02 06:30:12;;;;;;;6.60;4.83;;;45.50;1.00;;;;;;5035468;28;20482;-62
2023/06/02 06:32:40;;;;;;;6.67;4.90;;;45.80;1.00;;;;;;5034455;28;21439;-62
2023/06/02 06:35:08;;;;;;;7.90;5.50;;;46.20;1.00;;;;;;5021993;28;20466;-62
2023/06/02 06:37:34;;;;;;;7.90;5.30;;;46.50;1.00;;;;;;5031959;28;20467;-62
2023/06/02 06:40:01;;;;;;;8.90;5.50;;;46.80;1.00;;;;;;5027348;28;20497;-62
2023/06/02 06:42:28;;;;;;;6.50;5.20;;;47.20;1.00;;;;;;5032166;28;20806;-62
2023/06/02 06:44:55;;;;;;;9.40;5.20;;;47.50;1.00;;;;;;5031205;28;20468;-61
2023/06/02 06:47:21;;;;;;;6.50;5.00;;;47.70;1.00;;;;;;5034424;28;20471;-62
2023/06/02 06:49:51;;;;;;;6.33;4.97;;;48.10;1.00;;;;;;5029303;28;20482;-62
2023/06/02 06:52:18;;;;;;;7.87;5.50;;;48.50;1.00;;;;;;5028986;28;20482;-62
2023/06/02 06:54:45;;;;;;;8.90;5.80;;;48.70;1.00;;;;;;5035108;28;20467;-62
2023/06/02 06:57:12;;;;;;;8.63;5.43;;;49.10;1.00;;;;;;5033432;28;20466;-62
2023/06/02 06:59:42;;;;;;;6.67;4.87;;;49.20;1.00;;;;;;5028501;28;20854;-62
2023/06/02 07:02:09;;;;;;;6.60;5.40;;;49.70;1.00;;;;;;5030320;28;20556;-62
2023/06/02 07:04:35;;;;;;;6.90;5.57;;;50.10;1.00;;;;;;5028868;28;20486;-62
2023/06/02 07:07:04;;;;;;;10.50;5.40;;;50.60;1.00;;;;;;5035400;28;20465;-62
2023/06/02 07:09:30;;;;;;;8.90;5.00;;;50.80;1.00;;;;;;5030996;28;20489;-62
2023/06/02 07:11:57;;;;;;;9.30;6.17;;;50.90;1.00;;;;;;5024422;28;20482;-62
2023/06/02 07:14:25;;;;;;;7.20;5.27;;;51.20;1.00;;;;;;5030155;28;20471;-62
2023/06/02 07:16:54;;;;;;;9.27;5.80;;;51.50;1.00;;;;;;5029090;28;20472;-62
2023/06/02 07:19:20;;;;;;;7.43;5.87;;;51.70;1.00;;;;;;5025150;28;20482;-62
2023/06/02 07:21:47;;;;;;;10.80;5.60;;;51.90;1.00;;;;;;5022795;28;20459;-62
2023/06/02 07:24:15;;;;;;;8.53;5.37;;;52.10;1.00;;;;;;5030552;28;20462;-62
2023/06/02 07:26:43;;;;;;;8.57;6.00;;;52.50;1.00;;;;;;5032192;28;20472;-61
2023/06/02 07:29:10;;;;;;;7.33;5.07;;;52.70;1.00;;;;;;5030355;28;20490;-61
2023/06/02 07:31:37;;;;;;;8.10;5.80;;;52.80;1.00;;;;;;5028727;28;20486;-61
2023/06/02 07:34:04;;;;;;;7.50;5.43;;;52.90;1.00;;;;;;5029717;28;20462;-61
2023/06/02 07:36:30;;;;;;;7.63;5.63;;;53.10;1.00;;;;;;5033051;28;21163;-62
2023/06/02 07:38:57;;;;;;;6.80;5.10;;;53.20;1.00;;;;;;5028494;28;20489;-62
2023/06/02 07:41:27;;;;;;;5.73;5.13;;;53.30;1.00;;;;;;5030243;28;20489;-62
2023/06/02 07:43:54;;;;;;;8.27;5.57;;;53.40;1.00;;;;;;5031145;28;20513;-62
2023/06/02 07:46:20;;;;;;;8.40;6.27;;;53.40;1.00;;;;;;5027311;28;20947;-63
2023/06/02 07:48:47;;;;;;;7.47;5.43;;;53.30;1.00;;;;;;5025084;28;20487;-63
2023/06/02 07:51:14;;;;;;;7.20;5.77;;;52.90;1.00;;;;;;5022017;28;20908;-63
2023/06/02 07:53:41;;;;;;;6.97;5.90;;;52.90;1.00;;;;;;5032565;28;20474;-63
2023/06/02 07:56:07;;;;;;;6.60;5.60;;;53.30;1.00;;;;;;5029626;28;20839;-65
2023/06/02 07:58:35;;;;;;;6.90;5.50;;;53.80;1.00;;;;;;5031122;28;20501;-62
2023/06/02 08:01:02;;;;;;;7.23;5.20;;;54.00;1.00;;;;;;5029660;28;20531;-62
2023/06/02 08:03:29;;;;;;;7.53;5.47;;;54.30;1.00;;;;;;5031172;28;20466;-62
2023/06/02 08:05:55;;;;;;;10.47;5.90;;;54.50;1.00;;;;;;5029809;28;20469;-62
2023/06/02 08:08:22;;;;;;;7.03;5.70;;;54.70;1.00;;;;;;5022072;28;20489;-63
2023/06/02 08:10:49;;;;;;;7.63;5.50;;;54.80;1.00;;;;;;5021706;28;20482;-63
2023/06/02 08:13:16;;;;;;;6.70;5.77;;;55.10;1.00;;;;;;5020996;28;21130;-64
2023/06/02 08:15:44;;;;;;;8.67;6.40;;;55.40;1.00;;;;;;5024694;28;20467;-62
2023/06/02 08:18:14;;;;;;;7.43;5.40;;;55.70;1.00;;;;;;5022222;28;20285;-62
2023/06/02 08:20:41;;;;;;;6.60;5.47;;;55.90;1.00;;;;;;5022960;28;20247;-62
2023/06/02 08:23:08;;;;;;;7.73;5.17;;;56.20;1.00;;;;;;5020532;28;20827;-63
2023/06/02 08:25:38;;;;;;;6.30;5.40;;;56.40;1.00;;;;;;5024131;28;20204;-62
2023/06/02 08:28:05;;;;;;;7.90;5.68;;;56.50;1.00;;;;;;5027831;28;20223;-63
2023/06/02 08:30:33;;;;;;;9.13;5.35;;;56.60;1.00;;;;;;5024970;28;20704;-63
2023/06/02 08:33:02;;;;;;;10.00;5.13;;;56.70;1.00;;;;;;5024403;28;20250;-63
2023/06/02 08:35:29;;;;;;;7.72;5.70;;;56.60;1.00;;;;;;5028215;28;20277;-63
2023/06/02 08:37:56;;;;;;;8.25;5.43;;;56.80;1.00;;;;;;5021403;28;20218;-62
2023/06/02 08:40:26;;;;;;;6.88;5.47;;;56.70;1.00;;;;;;5022641;28;20220;-65
2023/06/02 08:42:53;;;;;;;6.80;5.80;;;57.10;1.00;;;;;;5025910;28;20192;-65
2023/06/02 08:45:22;;;;;;;6.97;5.28;;;57.10;1.00;;;;;;5030543;28;20212;-65
2023/06/02 08:47:54;;;;;;;6.45;5.43;;;57.20;1.00;;;;;;5017816;28;20291;-65
2023/06/02 08:50:27;;;;;;;8.43;4.68;;;57.30;1.00;;;;;;5021499;28;20295;-65
2023/06/02 08:52:56;;;;;;;7.75;5.00;;;57.20;1.00;;;;;;5025125;28;20898;-65
2023/06/02 08:55:23;;;;;;;5.95;4.97;;;57.40;1.00;;;;;;5027206;28;20204;-65
2023/06/02 08:57:51;;;;;;;7.70;5.70;;;57.40;1.00;;;;;;5032602;28;20659;-64
2023/06/02 09:00:18;;;;;;;9.23;5.32;;;57.40;1.00;;;;;;5025638;28;20207;-64
2023/06/02 09:02:48;;;;;;;6.30;5.15;;;57.60;1.00;;;;;;5028456;28;20210;-64
2023/06/02 09:05:16;;;;;;;8.88;6.30;;;57.50;1.00;;;;;;5029152;28;20235;-65
2023/06/02 09:07:44;;;;;;;6.95;5.55;;;57.40;1.00;;;;;;5024466;28;20682;-65
2023/06/02 09:10:11;;;;;;;8.32;5.63;;;57.30;1.00;;;;;;5023769;28;20220;-65
2023/06/02 09:12:48;;;;;;;6.68;5.05;;;57.20;1.00;;;;;;5028697;28;20216;-65
2023/06/02 09:15:16;;;;;;;8.85;5.28;;;57.00;1.00;;;;;;5023542;28;20211;-64
2023/06/02 09:17:43;;;;;;;6.55;4.82;;;57.00;1.00;;;;;;5028814;28;20192;-64
2023/06/02 09:20:11;;;;;;;6.10;5.03;;;57.00;1.00;;;;;;5030026;28;20227;-64
2023/06/02 09:22:53;;;;;;;6.70;5.00;;;56.80;1.00;;;;;;5026113;28;20201;-64
2023/06/02 09:25:24;;;;;;;6.93;5.30;;;56.20;1.00;;;;;;5028777;28;20232;-64
2023/06/02 09:27:51;;;;;;;7.30;5.47;;;54.70;1.00;;;;;;5027933;28;20455;-64
2023/06/02 09:30:18;;;;;;;7.60;5.33;;;52.40;1.00;;;;;;5026792;28;20501;-64
2023/06/02 09:32:53;;;;;;;9.93;6.20;;;50.10;1.00;;;;;;5028455;28;20483;-64
2023/06/02 09:35:40;;;;;;;8.03;5.40;;;47.90;1.00;;;;;;5028042;28;20496;-64
2023/06/02 09:38:11;;;;;;;9.50;6.00;;;45.60;1.00;;;;;;5023593;28;20462;-64
2023/06/02 09:40:38;;;;;;;8.27;5.37;;;43.80;1.00;;;;;;5028545;28;21000;-63
2023/06/02 09:43:06;;;;;;;8.43;6.03;;;42.30;1.00;;;;;;5021067;28;20455;-64
2023/06/02 09:45:34;;;;;;;11.40;6.30;;;41.00;1.00;;;;;;5024168;28;20980;-64
2023/06/02 09:48:01;;;;;;;6.90;5.57;;;39.80;1.00;;;;;;5025726;28;20483;-64
2023/06/02 09:50:35;;;;;;;9.60;7.30;;;38.70;1.00;;;;;;5024451;28;20463;-64
2023/06/02 09:53:06;;;;;;;9.60;6.67;;;37.70;1.00;;;;;;5024083;28;20517;-63
2023/06/02 09:55:36;;;;;;;7.67;5.60;;;37.00;1.00;;;;;;5024184;28;20500;-63
2023/06/02 09:58:04;;;;;;;9.97;5.83;;;36.00;1.00;;;;;;5021470;28;21015;-63
2023/06/02 10:00:32;;;;;;;9.10;5.97;;;35.20;1.00;;;;;;5025934;28;20470;-64
2023/06/02 10:02:59;;;;;;;9.03;6.80;;;34.70;1.00;;;;;;5021947;28;20459;-63
2023/06/02 10:05:26;;;;;;;9.47;6.80;;;34.30;1.00;;;;;;5028356;28;20469;-63
2023/06/02 10:08:08;;;;;;;10.40;6.13;;;33.70;1.00;;;;;;5027681;28;20959;-63
2023/06/02 10:10:59;;;;;;;12.80;6.40;;;33.40;1.00;;;;;;5025844;28;20959;-64
2023/06/02 10:13:41;;;;;;;11.70;6.40;;;33.10;1.00;;;;;;5024248;28;20463;-64
2023/06/02 10:16:22;;;;;;;6.80;5.40;;;32.80;1.00;;;;;;5025490;28;20450;-64
2023/06/02 10:19:23;;;;;;;14.60;6.10;;;32.60;1.00;;;;;;5023399;28;20485;-64
2023/06/02 10:22:23;;;;;;;11.13;7.13;;;32.30;1.00;;;;;;5019071;28;20561;-64
2023/06/02 10:24:59;;;;;;;8.50;5.70;;;32.10;1.00;;;;;;5026404;28;20466;-64
2023/06/02 10:27:32;;;;;;;8.70;6.70;;;31.80;1.00;;;;;;5024161;28;20474;-64
2023/06/02 10:29:59;;;;;;;10.30;6.50;;;31.50;1.00;;;;;;5022449;28;20483;-64
2023/06/02 10:32:27;;;;;;;7.87;5.63;;;31.40;1.00;;;;;;5026352;28;20479;-64
2023/06/02 10:34:55;;;;;;;8.33;5.73;;;31.30;1.00;;;;;;5025189;28;20498;-64
2023/06/02 10:37:23;;;;;;;9.40;5.90;;;31.10;1.00;;;;;;5025288;28;20814;-64
2023/06/02 10:39:54;;;;;;;8.93;6.37;;;30.90;1.00;;;;;;5025162;28;20485;-64
2023/06/02 10:42:23;;;;;;;8.57;6.00;;;30.80;1.00;;;;;;5022221;28;20831;-64
2023/06/02 10:44:52;;;;;;;10.37;6.00;;;30.70;1.00;;;;;;5022459;28;20455;-64
2023/06/02 10:47:36;;;;;;;8.23;5.60;;;30.60;1.00;;;;;;5021741;28;20544;-64
2023/06/02 10:50:09;;;;;;;9.60;5.80;;;30.50;1.00;;;;;;5025439;28;21053;-64
2023/06/02 10:53:10;;;;;;;12.80;6.20;;;30.40;1.00;;;;;;5017924;28;20510;-65
2023/06/02 10:55:38;;;;;;;12.03;6.57;;;30.30;1.00;;;;;;5024491;28;20454;-64
2023/06/02 10:58:06;;;;;;;8.53;6.07;;;30.10;1.00;;;;;;5026262;28;20459;-64
2023/06/02 11:00:49;;;;;;;8.57;5.83;;;30.00;1.00;;;;;;5028596;28;20973;-64
2023/06/02 11:03:33;;;;;;;9.70;5.70;;;29.80;1.00;;;;;;5024233;28;20465;-64
2023/06/02 11:06:18;;;;;;;12.30;6.77;;;29.60;1.00;;;;;;5022279;28;20466;-64
2023/06/02 11:08:45;;;;;;;11.30;6.20;;;29.50;1.00;;;;;;5023305;28;20478;-64
2023/06/02 11:11:11;;;;;;;10.10;5.43;;;29.50;1.00;;;;;;5028901;28;20724;-64
2023/06/02 11:13:56;;;;;;;7.83;5.67;;;29.30;1.00;;;;;;5027550;28;20489;-64
2023/06/02 11:16:27;;;;;;;9.03;5.40;;;29.20;1.00;;;;;;5029451;28;20469;-64
2023/06/02 11:18:54;;;;;;;10.10;5.70;;;29.10;1.00;;;;;;5033963;28;20501;-64
2023/06/02 11:21:22;;;;;;;12.80;7.00;;;29.10;1.00;;;;;;5032022;28;21005;-65
2023/06/02 11:23:49;;;;;;;8.37;5.67;;;29.00;1.00;;;;;;5029155;28;20805;-64
2023/06/02 11:26:17;;;;;;;8.40;5.87;;;29.00;1.00;;;;;;5018510;28;20471;-64
2023/06/02 11:28:44;;;;;;;10.53;6.23;;;28.80;1.00;;;;;;5027813;28;20478;-64
2023/06/02 11:31:13;;;;;;;11.00;6.70;;;28.80;1.00;;;;;;5031808;28;20471;-64
2023/06/02 11:33:42;;;;;;;7.70;5.10;;;28.70;1.00;;;;;;5030297;28;20482;-65
2023/06/02 11:36:10;;;;;;;8.60;5.47;;;28.80;1.00;;;;;;5024171;28;20471;-64
2023/06/02 11:38:39;;;;;;;9.20;5.80;;;28.60;1.00;;;;;;5031677;28;20481;-64
2023/06/02 11:41:10;;;;;;;10.97;6.50;;;28.50;1.00;;;;;;5030639;28;20463;-64
2023/06/02 11:43:36;;;;;;;8.47;5.80;;;28.40;1.00;;;;;;5031318;28;21266;-64
2023/06/02 11:46:07;;;;;;;10.70;6.07;;;28.20;1.00;;;;;;5031164;28;20794;-64
2023/06/02 11:48:36;;;;;;;9.40;6.10;;;28.20;1.00;;;;;;5031874;28;20513;-64
2023/06/02 11:51:04;;;;;;;9.73;5.13;;;28.10;1.00;;;;;;5021096;28;20547;-64
2023/06/02 11:53:31;;;;;;;8.70;5.80;;;28.10;1.00;;;;;;5028828;28;20539;-64
2023/06/02 11:55:57;;;;;;;9.30;5.40;;;28.10;1.00;;;;;;5029174;28;20474;-64
2023/06/02 11:58:27;;;;;;;10.67;5.63;;;28.00;1.00;;;;;;5033201;28;20470;-64
2023/06/02 12:01:04;;;;;;;7.57;5.10;;;28.00;1.00;;;;;;5025960;28;20604;-64
2023/06/02 12:03:31;;;;;;;11.97;6.00;;;28.00;1.00;;;;;;5025381;28;20972;-64
2023/06/02 12:06:07;;;;;;;10.23;5.60;;;27.90;1.00;;;;;;5030939;28;20466;-64
2023/06/02 12:08:35;;;;;;;8.40;5.67;;;27.90;1.00;;;;;;5023005;28;20475;-64
2023/06/02 12:11:03;;;;;;;7.00;4.90;;;27.90;1.00;;;;;;5023174;28;20466;-64
2023/06/02 12:13:31;;;;;;;9.80;5.63;;;27.80;1.00;;;;;;5030602;28;20489;-64
2023/06/02 12:16:19;;;;;;;8.50;5.40;;;27.70;1.00;;;;;;5028100;28;20497;-64
2023/06/02 12:18:45;;;;;;;10.70;5.67;;;27.70;1.00;;;;;;5026197;28;20560;-65
2023/06/02 12:21:21;;;;;;;12.03;6.30;;;27.80;1.00;;;;;;5025078;28;20466;-64
2023/06/02 12:23:50;;;;;;;7.60;4.80;;;27.80;1.00;;;;;;5028817;28;20501;-64
2023/06/02 12:26:17;;;;;;;10.13;5.77;;;27.80;1.00;;;;;;5031109;28;20455;-64
2023/06/02 12:28:44;;;;;;;7.70;5.40;;;27.80;1.00;;;;;;5028286;28;20528;-64
2023/06/02 12:31:10;;;;;;;10.67;5.10;;;27.90;1.00;;;;;;5025679;28;20475;-64
2023/06/02 12:33:38;;;;;;;9.17;4.97;;;28.00;1.00;;;;;;5026200;28;20494;-64
2023/06/02 12:36:04;;;;;;;7.47;4.40;;;28.10;1.00;;;;;;5027123;28;20542;-64
2023/06/02 12:38:31;;;;;;;8.83;5.67;;;28.20;1.00;;;;;;5027691;28;20470;-64
2023/06/02 12:40:59;;;;;;;9.50;5.60;;;28.30;1.00;;;;;;5022910;28;20462;-64
2023/06/02 12:43:26;;;;;;;12.10;5.47;;;28.30;1.00;;;;;;5028965;28;20459;-64
2023/06/02 12:45:53;;;;;;;9.40;5.90;;;28.40;1.00;;;;;;5024988;28;20462;-64
2023/06/02 12:48:19;;;;;;;9.97;6.20;;;28.40;1.00;;;;;;5029599;28;20487;-64
2023/06/02 12:50:46;;;;;;;10.90;7.40;;;28.30;1.00;;;;;;5027300;28;20494;-64
2023/06/02 12:53:13;;;;;;;10.83;6.00;;;28.20;1.00;;;;;;5029234;28;20554;-65
2023/06/02 12:55:39;;;;;;;9.33;5.50;;;28.10;1.00;;;;;;5029410;28;20829;-64
2023/06/02 12:58:08;;;;;;;10.73;6.40;;;28.10;1.00;;;;;;5026655;22;20497;-64